sensor_id;sensor_type;location;lat;lon;timestamp;P1;durP1;ratioP1;P2;durP2;ratioP2
7667;SDS011;3876;42.204;24.686;2024-03-06T00:02:25;3.80;;;2.33;;
7667;SDS011;3876;42.204;24.686;2024-03-06T00:04:52;4.33;;;3.57;;
7667;SDS011;3876;42.204;24.686;2024-03-06T00:07:20;2.63;;;2.53;;
7667;SDS011;3876;42.204;24.686;2024-03-06T00:09:47;6.20;;;4.00;;
7667;SDS011;3876;42.204;24.686;2024-03-06T00:12:14;13.20;;;4.57;;
7667;SDS011;3876;42.204;24.686;2024-03-06T00:14:41;8.73;;;4.43;;
7667;SDS011;3876;42.204;24.686;2024-03-06T00:17:07;3.53;;;3.00;;
7667;SDS011;3876;42.204;24.686;2024-03-06T00:19:34;2.87;;;2.67;;
7667;SDS011;3876;42.204;24.686;2024-03-06T00:22:01;4.63;;;4.27;;
7667;SDS011;3876;42.204;24.686;2024-03-06T00:24:30;4.80;;;4.30;;
7667;SDS011;3876;42.204;24.686;2024-03-06T00:26:57;2.60;;;2.40;;
7667;SDS011;3876;42.204;24.686;2024-03-06T00:29:24;8.27;;;3.17;;
7667;SDS011;3876;42.204;24.686;2024-03-06T00:31:51;7.13;;;3.70;;
7667;SDS011;3876;42.204;24.686;2024-03-06T00:34:17;10.33;;;5.63;;
7667;SDS011;3876;42.204;24.686;2024-03-06T00:36:45;10.63;;;3.57;;
7667;SDS011;3876;42.204;24.686;2024-03-06T00:39:12;9.63;;;5.10;;
7667;SDS011;3876;42.204;24.686;2024-03-06T00:41:41;4.57;;;2.93;;
7667;SDS011;3876;42.204;24.686;2024-03-06T00:44:07;5.33;;;3.53;;
7667;SDS011;3876;42.204;24.686;2024-03-06T00:46:34;16.87;;;5.03;;
7667;SDS011;3876;42.204;24.686;2024-03-06T00:49:01;4.93;;;3.60;;
7667;SDS011;3876;42.204;24.686;2024-03-06T00:51:28;4.63;;;3.40;;
7667;SDS011;3876;42.204;24.686;2024-03-06T00:53:55;9.53;;;4.57;;
7667;SDS011;3876;42.204;24.686;2024-03-06T00:56:22;11.47;;;3.27;;
7667;SDS011;3876;42.204;24.686;2024-03-06T00:58:50;7.23;;;3.63;;
7667;SDS011;3876;42.204;24.686;2024-03-06T01:01:17;4.80;;;3.40;;
7667;SDS011;3876;42.204;24.686;2024-03-06T01:03:44;4.30;;;3.73;;
7667;SDS011;3876;42.204;24.686;2024-03-06T01:06:10;5.53;;;3.67;;
7667;SDS011;3876;42.204;24.686;2024-03-06T01:08:37;13.17;;;4.47;;
7667;SDS011;3876;42.204;24.686;2024-03-06T01:11:04;12.33;;;4.70;;
7667;SDS011;3876;42.204;24.686;2024-03-06T01:13:31;6.47;;;4.03;;
7667;SDS011;3876;42.204;24.686;2024-03-06T01:15:59;8.50;;;4.23;;
7667;SDS011;3876;42.204;24.686;2024-03-06T01:18:26;2.70;;;2.60;;
7667;SDS011;3876;42.204;24.686;2024-03-06T01:20:53;6.20;;;3.27;;
7667;SDS011;3876;42.204;24.686;2024-03-06T01:23:19;4.50;;;3.77;;
7667;SDS011;3876;42.204;24.686;2024-03-06T01:25:46;7.93;;;4.07;;
7667;SDS011;3876;42.204;24.686;2024-03-06T01:28:13;7.53;;;5.37;;
7667;SDS011;3876;42.204;24.686;2024-03-06T01:30:39;6.63;;;3.77;;
7667;SDS011;3876;42.204;24.686;2024-03-06T01:33:08;10.20;;;4.20;;
7667;SDS011;3876;42.204;24.686;2024-03-06T01:35:35;13.20;;;4.70;;
7667;SDS011;3876;42.204;24.686;2024-03-06T01:38:01;4.77;;;4.47;;
7667;SDS011;3876;42.204;24.686;2024-03-06T01:40:28;4.90;;;3.77;;
7667;SDS011;3876;42.204;24.686;2024-03-06T01:42:55;4.73;;;3.70;;
7667;SDS011;3876;42.204;24.686;2024-03-06T01:45:22;5.97;;;4.00;;
7667;SDS011;3876;42.204;24.686;2024-03-06T01:47:48;4.57;;;3.03;;
7667;SDS011;3876;42.204;24.686;2024-03-06T01:50:17;4.67;;;3.83;;
7667;SDS011;3876;42.204;24.686;2024-03-06T01:52:45;5.43;;;4.00;;
7667;SDS011;3876;42.204;24.686;2024-03-06T01:55:13;4.67;;;2.83;;
7667;SDS011;3876;42.204;24.686;2024-03-06T01:57:41;4.47;;;4.17;;
7667;SDS011;3876;42.204;24.686;2024-03-06T02:00:08;6.37;;;3.83;;
7667;SDS011;3876;42.204;24.686;2024-03-06T02:02:39;8.87;;;4.63;;
7667;SDS011;3876;42.204;24.686;2024-03-06T02:05:07;5.90;;;3.87;;
7667;SDS011;3876;42.204;24.686;2024-03-06T02:07:35;9.43;;;3.73;;
7667;SDS011;3876;42.204;24.686;2024-03-06T02:10:05;8.47;;;3.83;;
7667;SDS011;3876;42.204;24.686;2024-03-06T02:12:35;6.47;;;4.43;;
7667;SDS011;3876;42.204;24.686;2024-03-06T02:15:01;4.23;;;3.83;;
7667;SDS011;3876;42.204;24.686;2024-03-06T02:17:29;3.70;;;3.40;;
7667;SDS011;3876;42.204;24.686;2024-03-06T02:19:56;10.90;;;4.00;;
7667;SDS011;3876;42.204;24.686;2024-03-06T02:22:25;9.00;;;3.80;;
7667;SDS011;3876;42.204;24.686;2024-03-06T02:24:51;4.30;;;3.73;;
7667;SDS011;3876;42.204;24.686;2024-03-06T02:27:18;4.00;;;3.07;;
7667;SDS011;3876;42.204;24.686;2024-03-06T02:29:45;4.37;;;4.07;;
7667;SDS011;3876;42.204;24.686;2024-03-06T02:32:12;4.43;;;4.17;;
7667;SDS011;3876;42.204;24.686;2024-03-06T02:34:38;5.43;;;4.13;;
7667;SDS011;3876;42.204;24.686;2024-03-06T02:37:05;4.03;;;3.10;;
7667;SDS011;3876;42.204;24.686;2024-03-06T02:39:33;9.60;;;5.50;;
7667;SDS011;3876;42.204;24.686;2024-03-06T02:42:00;7.47;;;4.10;;
7667;SDS011;3876;42.204;24.686;2024-03-06T02:44:28;11.73;;;5.00;;
7667;SDS011;3876;42.204;24.686;2024-03-06T02:46:54;7.13;;;3.57;;
7667;SDS011;3876;42.204;24.686;2024-03-06T02:49:21;4.60;;;3.63;;
7667;SDS011;3876;42.204;24.686;2024-03-06T02:51:48;5.67;;;2.37;;
7667;SDS011;3876;42.204;24.686;2024-03-06T02:54:14;5.10;;;3.53;;
7667;SDS011;3876;42.204;24.686;2024-03-06T02:56:43;4.87;;;4.27;;
7667;SDS011;3876;42.204;24.686;2024-03-06T02:59:09;6.67;;;3.00;;
7667;SDS011;3876;42.204;24.686;2024-03-06T03:01:36;3.93;;;3.60;;
7667;SDS011;3876;42.204;24.686;2024-03-06T03:04:04;5.10;;;4.67;;
7667;SDS011;3876;42.204;24.686;2024-03-06T03:06:31;3.80;;;3.37;;
7667;SDS011;3876;42.204;24.686;2024-03-06T03:08:58;5.63;;;3.73;;
7667;SDS011;3876;42.204;24.686;2024-03-06T03:11:25;7.23;;;3.87;;
7667;SDS011;3876;42.204;24.686;2024-03-06T03:13:53;3.37;;;3.17;;
7667;SDS011;3876;42.204;24.686;2024-03-06T03:16:20;14.30;;;4.73;;
7667;SDS011;3876;42.204;24.686;2024-03-06T03:18:46;9.40;;;4.23;;
7667;SDS011;3876;42.204;24.686;2024-03-06T03:21:14;8.97;;;3.73;;
7667;SDS011;3876;42.204;24.686;2024-03-06T03:23:40;7.10;;;3.57;;
7667;SDS011;3876;42.204;24.686;2024-03-06T03:26:07;4.13;;;3.73;;
7667;SDS011;3876;42.204;24.686;2024-03-06T03:28:37;6.20;;;4.07;;
7667;SDS011;3876;42.204;24.686;2024-03-06T03:31:05;6.03;;;4.47;;
7667;SDS011;3876;42.204;24.686;2024-03-06T03:33:34;6.10;;;3.23;;
7667;SDS011;3876;42.204;24.686;2024-03-06T03:36:01;3.17;;;2.17;;
7667;SDS011;3876;42.204;24.686;2024-03-06T03:38:28;2.43;;;1.97;;
7667;SDS011;3876;42.204;24.686;2024-03-06T03:40:55;11.70;;;3.73;;
7667;SDS011;3876;42.204;24.686;2024-03-06T03:43:21;2.83;;;2.23;;
7667;SDS011;3876;42.204;24.686;2024-03-06T03:45:48;6.43;;;3.73;;
7667;SDS011;3876;42.204;24.686;2024-03-06T03:48:16;7.20;;;3.67;;
7667;SDS011;3876;42.204;24.686;2024-03-06T03:50:43;10.33;;;3.80;;
7667;SDS011;3876;42.204;24.686;2024-03-06T03:53:09;3.70;;;3.43;;
7667;SDS011;3876;42.204;24.686;2024-03-06T03:55:36;4.03;;;3.33;;
7667;SDS011;3876;42.204;24.686;2024-03-06T03:58:03;2.83;;;2.63;;
7667;SDS011;3876;42.204;24.686;2024-03-06T04:00:31;1.73;;;1.63;;
7667;SDS011;3876;42.204;24.686;2024-03-06T04:02:58;1.97;;;1.87;;
7667;SDS011;3876;42.204;24.686;2024-03-06T04:05:26;3.10;;;2.90;;
7667;SDS011;3876;42.204;24.686;2024-03-06T04:07:53;3.17;;;2.97;;
7667;SDS011;3876;42.204;24.686;2024-03-06T04:10:20;2.80;;;2.63;;
7667;SDS011;3876;42.204;24.686;2024-03-06T04:12:47;6.10;;;3.00;;
7667;SDS011;3876;42.204;24.686;2024-03-06T04:15:14;6.87;;;2.40;;
7667;SDS011;3876;42.204;24.686;2024-03-06T04:17:41;2.83;;;2.63;;
7667;SDS011;3876;42.204;24.686;2024-03-06T04:20:08;10.20;;;2.67;;
7667;SDS011;3876;42.204;24.686;2024-03-06T04:22:38;6.83;;;2.47;;
7667;SDS011;3876;42.204;24.686;2024-03-06T04:25:05;3.77;;;2.17;;
7667;SDS011;3876;42.204;24.686;2024-03-06T04:27:32;2.97;;;2.37;;
7667;SDS011;3876;42.204;24.686;2024-03-06T04:29:59;10.13;;;1.87;;
7667;SDS011;3876;42.204;24.686;2024-03-06T04:32:26;2.17;;;2.07;;
7667;SDS011;3876;42.204;24.686;2024-03-06T04:34:53;7.20;;;1.87;;
7667;SDS011;3876;42.204;24.686;2024-03-06T04:37:21;5.73;;;2.50;;
7667;SDS011;3876;42.204;24.686;2024-03-06T04:39:49;2.77;;;2.23;;
7667;SDS011;3876;42.204;24.686;2024-03-06T04:42:16;1.40;;;1.30;;
7667;SDS011;3876;42.204;24.686;2024-03-06T04:44:42;5.63;;;1.53;;
7667;SDS011;3876;42.204;24.686;2024-03-06T04:47:09;3.53;;;2.80;;
7667;SDS011;3876;42.204;24.686;2024-03-06T04:49:36;1.43;;;1.33;;
7667;SDS011;3876;42.204;24.686;2024-03-06T04:52:02;1.17;;;1.17;;
7667;SDS011;3876;42.204;24.686;2024-03-06T04:54:29;1.80;;;1.57;;
7667;SDS011;3876;42.204;24.686;2024-03-06T04:56:57;4.13;;;2.27;;
7667;SDS011;3876;42.204;24.686;2024-03-06T04:59:24;2.93;;;1.77;;
7667;SDS011;3876;42.204;24.686;2024-03-06T05:01:51;1.30;;;1.30;;
7667;SDS011;3876;42.204;24.686;2024-03-06T05:04:18;2.23;;;2.13;;
7667;SDS011;3876;42.204;24.686;2024-03-06T05:06:45;4.47;;;1.10;;
7667;SDS011;3876;42.204;24.686;2024-03-06T05:09:12;1.70;;;1.47;;
7667;SDS011;3876;42.204;24.686;2024-03-06T05:11:40;1.37;;;1.33;;
7667;SDS011;3876;42.204;24.686;2024-03-06T05:14:08;2.43;;;2.33;;
7667;SDS011;3876;42.204;24.686;2024-03-06T05:16:34;1.10;;;1.00;;
7667;SDS011;3876;42.204;24.686;2024-03-06T05:19:01;1.43;;;1.27;;
7667;SDS011;3876;42.204;24.686;2024-03-06T05:21:28;2.43;;;2.27;;
7667;SDS011;3876;42.204;24.686;2024-03-06T05:23:55;3.17;;;2.87;;
7667;SDS011;3876;42.204;24.686;2024-03-06T05:26:22;2.87;;;2.03;;
7667;SDS011;3876;42.204;24.686;2024-03-06T05:28:49;1.50;;;1.40;;
7667;SDS011;3876;42.204;24.686;2024-03-06T05:31:17;1.73;;;1.63;;
7667;SDS011;3876;42.204;24.686;2024-03-06T05:33:46;0.67;;;0.67;;
7667;SDS011;3876;42.204;24.686;2024-03-06T05:36:13;1.17;;;1.17;;
7667;SDS011;3876;42.204;24.686;2024-03-06T05:38:40;2.27;;;2.17;;
7667;SDS011;3876;42.204;24.686;2024-03-06T05:41:07;1.57;;;1.57;;
7667;SDS011;3876;42.204;24.686;2024-03-06T05:43:34;2.40;;;2.30;;
7667;SDS011;3876;42.204;24.686;2024-03-06T05:46:01;1.13;;;1.10;;
7667;SDS011;3876;42.204;24.686;2024-03-06T05:48:29;1.00;;;1.00;;
7667;SDS011;3876;42.204;24.686;2024-03-06T05:50:56;2.50;;;2.13;;
7667;SDS011;3876;42.204;24.686;2024-03-06T05:53:23;1.67;;;1.30;;
7667;SDS011;3876;42.204;24.686;2024-03-06T05:55:49;1.30;;;1.20;;
7667;SDS011;3876;42.204;24.686;2024-03-06T05:58:16;3.77;;;2.10;;
7667;SDS011;3876;42.204;24.686;2024-03-06T06:00:43;2.40;;;2.30;;
7667;SDS011;3876;42.204;24.686;2024-03-06T06:03:09;2.10;;;2.00;;
7667;SDS011;3876;42.204;24.686;2024-03-06T06:05:40;2.13;;;1.50;;
7667;SDS011;3876;42.204;24.686;2024-03-06T06:08:07;2.20;;;1.50;;
7667;SDS011;3876;42.204;24.686;2024-03-06T06:10:34;2.13;;;1.83;;
7667;SDS011;3876;42.204;24.686;2024-03-06T06:13:01;1.73;;;1.63;;
7667;SDS011;3876;42.204;24.686;2024-03-06T06:15:29;5.80;;;2.37;;
7667;SDS011;3876;42.204;24.686;2024-03-06T06:17:56;1.10;;;1.10;;
7667;SDS011;3876;42.204;24.686;2024-03-06T06:20:23;2.10;;;1.97;;
7667;SDS011;3876;42.204;24.686;2024-03-06T06:22:51;1.20;;;1.20;;
7667;SDS011;3876;42.204;24.686;2024-03-06T06:25:18;1.73;;;1.63;;
7667;SDS011;3876;42.204;24.686;2024-03-06T06:27:45;3.30;;;2.10;;
7667;SDS011;3876;42.204;24.686;2024-03-06T06:30:14;1.20;;;1.20;;
7667;SDS011;3876;42.204;24.686;2024-03-06T06:32:41;1.57;;;1.57;;
7667;SDS011;3876;42.204;24.686;2024-03-06T06:35:09;7.53;;;1.83;;
7667;SDS011;3876;42.204;24.686;2024-03-06T06:37:36;2.43;;;1.80;;
7667;SDS011;3876;42.204;24.686;2024-03-06T06:40:06;2.70;;;2.57;;
7667;SDS011;3876;42.204;24.686;2024-03-06T06:42:35;1.27;;;1.27;;
7667;SDS011;3876;42.204;24.686;2024-03-06T06:45:02;2.47;;;2.37;;
7667;SDS011;3876;42.204;24.686;2024-03-06T06:47:31;1.93;;;1.80;;
7667;SDS011;3876;42.204;24.686;2024-03-06T06:49:58;6.03;;;2.20;;
7667;SDS011;3876;42.204;24.686;2024-03-06T06:52:24;3.90;;;2.20;;
7667;SDS011;3876;42.204;24.686;2024-03-06T06:54:52;2.43;;;1.90;;
7667;SDS011;3876;42.204;24.686;2024-03-06T06:57:20;1.70;;;1.60;;
7667;SDS011;3876;42.204;24.686;2024-03-06T06:59:47;2.40;;;2.20;;
7667;SDS011;3876;42.204;24.686;2024-03-06T07:02:14;2.40;;;1.80;;
7667;SDS011;3876;42.204;24.686;2024-03-06T07:04:41;1.90;;;1.77;;
7667;SDS011;3876;42.204;24.686;2024-03-06T07:07:07;2.80;;;1.70;;
7667;SDS011;3876;42.204;24.686;2024-03-06T07:09:34;1.40;;;1.40;;
7667;SDS011;3876;42.204;24.686;2024-03-06T07:12:01;3.73;;;1.80;;
7667;SDS011;3876;42.204;24.686;2024-03-06T07:14:29;2.80;;;2.60;;
7667;SDS011;3876;42.204;24.686;2024-03-06T07:16:56;2.47;;;1.50;;
7667;SDS011;3876;42.204;24.686;2024-03-06T07:19:23;2.50;;;2.30;;
7667;SDS011;3876;42.204;24.686;2024-03-06T07:21:49;2.77;;;2.67;;
7667;SDS011;3876;42.204;24.686;2024-03-06T07:24:17;2.33;;;2.03;;
7667;SDS011;3876;42.204;24.686;2024-03-06T07:26:43;2.37;;;2.27;;
7667;SDS011;3876;42.204;24.686;2024-03-06T07:29:10;2.03;;;1.93;;
7667;SDS011;3876;42.204;24.686;2024-03-06T07:31:41;7.37;;;2.53;;
7667;SDS011;3876;42.204;24.686;2024-03-06T07:34:08;1.97;;;1.80;;
7667;SDS011;3876;42.204;24.686;2024-03-06T07:36:36;2.33;;;2.20;;
7667;SDS011;3876;42.204;24.686;2024-03-06T07:39:03;2.07;;;1.97;;
7667;SDS011;3876;42.204;24.686;2024-03-06T07:41:30;5.57;;;2.03;;
7667;SDS011;3876;42.204;24.686;2024-03-06T07:43:57;3.60;;;2.53;;
7667;SDS011;3876;42.204;24.686;2024-03-06T07:46:25;2.07;;;1.90;;
7667;SDS011;3876;42.204;24.686;2024-03-06T07:48:53;3.23;;;3.13;;
7667;SDS011;3876;42.204;24.686;2024-03-06T07:51:20;1.80;;;1.70;;
7667;SDS011;3876;42.204;24.686;2024-03-06T07:53:47;2.53;;;2.27;;
7667;SDS011;3876;42.204;24.686;2024-03-06T07:56:15;2.63;;;1.90;;
7667;SDS011;3876;42.204;24.686;2024-03-06T07:58:42;3.80;;;2.53;;
7667;SDS011;3876;42.204;24.686;2024-03-06T08:01:09;2.70;;;2.47;;
7667;SDS011;3876;42.204;24.686;2024-03-06T08:03:38;4.00;;;3.00;;
7667;SDS011;3876;42.204;24.686;2024-03-06T08:06:06;2.70;;;2.50;;
7667;SDS011;3876;42.204;24.686;2024-03-06T08:08:33;2.20;;;2.10;;
7667;SDS011;3876;42.204;24.686;2024-03-06T08:11:00;2.33;;;2.13;;
7667;SDS011;3876;42.204;24.686;2024-03-06T08:13:27;5.90;;;2.97;;
7667;SDS011;3876;42.204;24.686;2024-03-06T08:15:54;1.47;;;1.37;;
7667;SDS011;3876;42.204;24.686;2024-03-06T08:18:21;2.40;;;2.30;;
7667;SDS011;3876;42.204;24.686;2024-03-06T08:20:47;2.90;;;2.43;;
7667;SDS011;3876;42.204;24.686;2024-03-06T08:23:15;3.73;;;2.40;;
7667;SDS011;3876;42.204;24.686;2024-03-06T08:25:42;3.10;;;2.40;;
7667;SDS011;3876;42.204;24.686;2024-03-06T08:28:09;2.00;;;1.90;;
7667;SDS011;3876;42.204;24.686;2024-03-06T08:30:36;2.10;;;1.80;;
7667;SDS011;3876;42.204;24.686;2024-03-06T08:33:04;2.00;;;1.90;;
7667;SDS011;3876;42.204;24.686;2024-03-06T08:35:31;2.60;;;2.40;;
7667;SDS011;3876;42.204;24.686;2024-03-06T08:37:57;2.17;;;2.07;;
7667;SDS011;3876;42.204;24.686;2024-03-06T08:40:26;4.07;;;2.97;;
7667;SDS011;3876;42.204;24.686;2024-03-06T08:42:53;3.43;;;2.60;;
7667;SDS011;3876;42.204;24.686;2024-03-06T08:45:20;2.43;;;2.30;;
7667;SDS011;3876;42.204;24.686;2024-03-06T08:47:48;1.97;;;1.87;;
7667;SDS011;3876;42.204;24.686;2024-03-06T08:50:15;3.17;;;2.33;;
7667;SDS011;3876;42.204;24.686;2024-03-06T08:52:42;2.30;;;2.20;;
7667;SDS011;3876;42.204;24.686;2024-03-06T08:55:09;2.17;;;2.07;;
7667;SDS011;3876;42.204;24.686;2024-03-06T08:57:38;5.00;;;2.07;;
7667;SDS011;3876;42.204;24.686;2024-03-06T09:00:05;2.07;;;1.50;;
7667;SDS011;3876;42.204;24.686;2024-03-06T09:02:35;2.67;;;2.53;;
7667;SDS011;3876;42.204;24.686;2024-03-06T09:05:03;7.53;;;2.50;;
7667;SDS011;3876;42.204;24.686;2024-03-06T09:07:30;1.97;;;1.87;;
7667;SDS011;3876;42.204;24.686;2024-03-06T09:10:02;2.40;;;2.13;;
7667;SDS011;3876;42.204;24.686;2024-03-06T09:12:30;2.47;;;2.37;;
7667;SDS011;3876;42.204;24.686;2024-03-06T09:14:58;2.03;;;1.90;;
7667;SDS011;3876;42.204;24.686;2024-03-06T09:17:26;4.13;;;2.60;;
7667;SDS011;3876;42.204;24.686;2024-03-06T09:19:53;1.83;;;1.73;;
7667;SDS011;3876;42.204;24.686;2024-03-06T09:22:20;2.60;;;1.90;;
7667;SDS011;3876;42.204;24.686;2024-03-06T09:24:46;1.63;;;1.53;;
7667;SDS011;3876;42.204;24.686;2024-03-06T09:27:14;1.97;;;1.87;;
7667;SDS011;3876;42.204;24.686;2024-03-06T09:29:41;2.07;;;1.53;;
7667;SDS011;3876;42.204;24.686;2024-03-06T09:32:09;2.47;;;2.27;;
7667;SDS011;3876;42.204;24.686;2024-03-06T09:34:38;1.50;;;1.40;;
7667;SDS011;3876;42.204;24.686;2024-03-06T09:37:05;2.30;;;2.20;;
7667;SDS011;3876;42.204;24.686;2024-03-06T09:39:31;3.23;;;2.13;;
7667;SDS011;3876;42.204;24.686;2024-03-06T09:41:59;2.20;;;2.00;;
7667;SDS011;3876;42.204;24.686;2024-03-06T09:44:26;1.27;;;1.27;;
7667;SDS011;3876;42.204;24.686;2024-03-06T09:46:53;2.30;;;2.10;;
7667;SDS011;3876;42.204;24.686;2024-03-06T09:49:24;2.67;;;1.70;;
7667;SDS011;3876;42.204;24.686;2024-03-06T09:51:53;2.90;;;2.63;;
7667;SDS011;3876;42.204;24.686;2024-03-06T09:54:20;1.83;;;1.70;;
7667;SDS011;3876;42.204;24.686;2024-03-06T09:56:51;1.87;;;1.77;;
7667;SDS011;3876;42.204;24.686;2024-03-06T09:59:20;2.17;;;2.07;;
7667;SDS011;3876;42.204;24.686;2024-03-06T10:01:53;4.33;;;1.70;;
7667;SDS011;3876;42.204;24.686;2024-03-06T10:04:21;1.73;;;1.63;;
7667;SDS011;3876;42.204;24.686;2024-03-06T10:06:54;2.20;;;1.93;;
7667;SDS011;3876;42.204;24.686;2024-03-06T10:09:21;3.07;;;2.37;;
7667;SDS011;3876;42.204;24.686;2024-03-06T10:11:49;1.90;;;1.70;;
7667;SDS011;3876;42.204;24.686;2024-03-06T10:14:19;3.00;;;1.80;;
7667;SDS011;3876;42.204;24.686;2024-03-06T10:16:54;1.70;;;1.60;;
7667;SDS011;3876;42.204;24.686;2024-03-06T10:19:22;3.03;;;2.53;;
7667;SDS011;3876;42.204;24.686;2024-03-06T10:21:54;1.20;;;1.20;;
7667;SDS011;3876;42.204;24.686;2024-03-06T10:24:22;1.60;;;1.50;;
7667;SDS011;3876;42.204;24.686;2024-03-06T10:26:50;1.97;;;1.77;;
7667;SDS011;3876;42.204;24.686;2024-03-06T10:29:20;1.93;;;1.83;;
7667;SDS011;3876;42.204;24.686;2024-03-06T10:31:49;4.50;;;2.47;;
7667;SDS011;3876;42.204;24.686;2024-03-06T10:34:17;2.20;;;2.07;;
7667;SDS011;3876;42.204;24.686;2024-03-06T10:36:45;1.57;;;1.47;;
7667;SDS011;3876;42.204;24.686;2024-03-06T10:39:13;2.23;;;2.13;;
7667;SDS011;3876;42.204;24.686;2024-03-06T10:41:43;2.80;;;2.60;;
7667;SDS011;3876;42.204;24.686;2024-03-06T10:44:11;4.93;;;3.20;;
7667;SDS011;3876;42.204;24.686;2024-03-06T10:46:41;1.57;;;1.53;;
7667;SDS011;3876;42.204;24.686;2024-03-06T10:49:11;2.20;;;2.07;;
7667;SDS011;3876;42.204;24.686;2024-03-06T10:51:38;2.53;;;2.07;;
7667;SDS011;3876;42.204;24.686;2024-03-06T10:54:08;1.93;;;1.83;;
7667;SDS011;3876;42.204;24.686;2024-03-06T10:56:38;1.73;;;1.60;;
7667;SDS011;3876;42.204;24.686;2024-03-06T10:59:07;2.23;;;2.13;;
7667;SDS011;3876;42.204;24.686;2024-03-06T11:01:36;2.87;;;1.53;;
7667;SDS011;3876;42.204;24.686;2024-03-06T11:04:05;1.93;;;1.47;;
7667;SDS011;3876;42.204;24.686;2024-03-06T11:06:32;2.63;;;1.73;;
7667;SDS011;3876;42.204;24.686;2024-03-06T11:08:59;1.97;;;1.87;;
7667;SDS011;3876;42.204;24.686;2024-03-06T11:11:27;1.53;;;1.30;;
7667;SDS011;3876;42.204;24.686;2024-03-06T11:13:55;2.07;;;1.87;;
7667;SDS011;3876;42.204;24.686;2024-03-06T11:16:29;2.13;;;2.03;;
7667;SDS011;3876;42.204;24.686;2024-03-06T11:19:05;1.90;;;1.47;;
7667;SDS011;3876;42.204;24.686;2024-03-06T11:21:33;4.40;;;2.43;;
7667;SDS011;3876;42.204;24.686;2024-03-06T11:24:13;2.53;;;1.80;;
7667;SDS011;3876;42.204;24.686;2024-03-06T11:26:45;4.43;;;1.77;;
7667;SDS011;3876;42.204;24.686;2024-03-06T11:29:16;3.90;;;1.67;;
7667;SDS011;3876;42.204;24.686;2024-03-06T11:31:59;1.97;;;1.83;;
7667;SDS011;3876;42.204;24.686;2024-03-06T11:34:27;1.83;;;1.73;;
7667;SDS011;3876;42.204;24.686;2024-03-06T11:36:56;1.90;;;1.80;;
7667;SDS011;3876;42.204;24.686;2024-03-06T11:39:24;3.73;;;2.57;;
7667;SDS011;3876;42.204;24.686;2024-03-06T11:41:54;2.27;;;2.13;;
7667;SDS011;3876;42.204;24.686;2024-03-06T11:44:22;2.00;;;1.90;;
7667;SDS011;3876;42.204;24.686;2024-03-06T11:46:56;3.37;;;2.70;;
7667;SDS011;3876;42.204;24.686;2024-03-06T11:49:25;2.97;;;2.73;;
7667;SDS011;3876;42.204;24.686;2024-03-06T11:51:54;2.33;;;1.97;;
7667;SDS011;3876;42.204;24.686;2024-03-06T11:54:22;6.53;;;2.77;;
7667;SDS011;3876;42.204;24.686;2024-03-06T11:56:51;2.53;;;2.37;;
7667;SDS011;3876;42.204;24.686;2024-03-06T11:59:21;1.47;;;1.37;;
7667;SDS011;3876;42.204;24.686;2024-03-06T12:01:49;2.47;;;2.27;;
7667;SDS011;3876;42.204;24.686;2024-03-06T12:04:16;1.93;;;1.83;;
7667;SDS011;3876;42.204;24.686;2024-03-06T12:06:44;2.30;;;2.20;;
7667;SDS011;3876;42.204;24.686;2024-03-06T12:09:11;1.97;;;1.87;;
7667;SDS011;3876;42.204;24.686;2024-03-06T12:11:38;2.57;;;2.37;;
7667;SDS011;3876;42.204;24.686;2024-03-06T12:14:04;5.03;;;1.63;;
7667;SDS011;3876;42.204;24.686;2024-03-06T12:16:34;3.07;;;2.70;;
7667;SDS011;3876;42.204;24.686;2024-03-06T12:19:01;1.57;;;1.47;;
7667;SDS011;3876;42.204;24.686;2024-03-06T12:21:28;3.70;;;2.33;;
7667;SDS011;3876;42.204;24.686;2024-03-06T12:24:03;3.03;;;2.73;;
7667;SDS011;3876;42.204;24.686;2024-03-06T12:26:30;4.43;;;2.43;;
7667;SDS011;3876;42.204;24.686;2024-03-06T12:29:03;3.27;;;2.97;;
7667;SDS011;3876;42.204;24.686;2024-03-06T12:31:35;2.97;;;2.77;;
7667;SDS011;3876;42.204;24.686;2024-03-06T12:34:04;2.10;;;1.90;;
7667;SDS011;3876;42.204;24.686;2024-03-06T12:36:32;2.97;;;2.77;;
7667;SDS011;3876;42.204;24.686;2024-03-06T12:39:00;5.80;;;4.05;;
7667;SDS011;3876;42.204;24.686;2024-03-06T12:41:28;2.70;;;2.60;;
7667;SDS011;3876;42.204;24.686;2024-03-06T12:43:56;4.53;;;2.53;;
7667;SDS011;3876;42.204;24.686;2024-03-06T12:46:23;7.43;;;3.80;;
7667;SDS011;3876;42.204;24.686;2024-03-06T12:48:52;3.57;;;3.23;;
7667;SDS011;3876;42.204;24.686;2024-03-06T12:51:19;2.37;;;2.20;;
7667;SDS011;3876;42.204;24.686;2024-03-06T12:53:47;5.07;;;2.33;;
7667;SDS011;3876;42.204;24.686;2024-03-06T12:56:14;3.57;;;3.17;;
7667;SDS011;3876;42.204;24.686;2024-03-06T12:58:41;3.43;;;3.13;;
7667;SDS011;3876;42.204;24.686;2024-03-06T13:01:08;3.10;;;2.80;;
7667;SDS011;3876;42.204;24.686;2024-03-06T13:03:35;2.40;;;2.03;;
7667;SDS011;3876;42.204;24.686;2024-03-06T13:06:04;4.80;;;3.97;;
7667;SDS011;3876;42.204;24.686;2024-03-06T13:08:31;19.67;;;7.77;;
7667;SDS011;3876;42.204;24.686;2024-03-06T13:10:58;5.33;;;4.97;;
7667;SDS011;3876;42.204;24.686;2024-03-06T13:13:25;5.07;;;4.37;;
7667;SDS011;3876;42.204;24.686;2024-03-06T13:15:53;6.57;;;4.67;;
7667;SDS011;3876;42.204;24.686;2024-03-06T13:18:20;8.97;;;4.70;;
7667;SDS011;3876;42.204;24.686;2024-03-06T13:20:47;3.43;;;3.23;;
7667;SDS011;3876;42.204;24.686;2024-03-06T13:23:16;7.93;;;4.43;;
7667;SDS011;3876;42.204;24.686;2024-03-06T13:25:42;8.60;;;3.37;;
7667;SDS011;3876;42.204;24.686;2024-03-06T13:28:10;5.33;;;2.30;;
7667;SDS011;3876;42.204;24.686;2024-03-06T13:30:37;2.80;;;2.60;;
7667;SDS011;3876;42.204;24.686;2024-03-06T13:33:04;3.03;;;2.83;;
7667;SDS011;3876;42.204;24.686;2024-03-06T13:35:32;6.07;;;2.30;;
7667;SDS011;3876;42.204;24.686;2024-03-06T13:37:59;4.97;;;3.17;;
7667;SDS011;3876;42.204;24.686;2024-03-06T13:40:29;4.37;;;2.67;;
7667;SDS011;3876;42.204;24.686;2024-03-06T13:42:56;3.80;;;3.40;;
7667;SDS011;3876;42.204;24.686;2024-03-06T13:45:22;3.57;;;3.27;;
7667;SDS011;3876;42.204;24.686;2024-03-06T13:47:49;4.03;;;2.80;;
7667;SDS011;3876;42.204;24.686;2024-03-06T13:50:16;3.70;;;3.50;;
7667;SDS011;3876;42.204;24.686;2024-03-06T13:52:43;2.70;;;2.50;;
7667;SDS011;3876;42.204;24.686;2024-03-06T13:55:09;2.77;;;2.60;;
7667;SDS011;3876;42.204;24.686;2024-03-06T13:57:39;2.97;;;2.77;;
7667;SDS011;3876;42.204;24.686;2024-03-06T14:00:06;2.47;;;2.33;;
7667;SDS011;3876;42.204;24.686;2024-03-06T14:02:37;1.90;;;1.83;;
7667;SDS011;3876;42.204;24.686;2024-03-06T14:05:04;3.90;;;2.40;;
7667;SDS011;3876;42.204;24.686;2024-03-06T14:07:31;2.50;;;2.37;;
7667;SDS011;3876;42.204;24.686;2024-03-06T14:09:59;4.83;;;3.37;;
7667;SDS011;3876;42.204;24.686;2024-03-06T14:12:26;2.70;;;2.50;;
7667;SDS011;3876;42.204;24.686;2024-03-06T14:14:54;2.20;;;2.10;;
7667;SDS011;3876;42.204;24.686;2024-03-06T14:17:20;10.23;;;3.07;;
7667;SDS011;3876;42.204;24.686;2024-03-06T14:19:47;2.93;;;2.73;;
7667;SDS011;3876;42.204;24.686;2024-03-06T14:22:14;8.03;;;2.67;;
7667;SDS011;3876;42.204;24.686;2024-03-06T14:24:41;4.00;;;2.47;;
7667;SDS011;3876;42.204;24.686;2024-03-06T14:27:08;3.53;;;3.20;;
7667;SDS011;3876;42.204;24.686;2024-03-06T14:29:35;2.77;;;2.53;;
7667;SDS011;3876;42.204;24.686;2024-03-06T14:32:04;5.53;;;2.83;;
7667;SDS011;3876;42.204;24.686;2024-03-06T14:34:31;2.17;;;2.07;;
7667;SDS011;3876;42.204;24.686;2024-03-06T14:36:58;3.70;;;2.40;;
7667;SDS011;3876;42.204;24.686;2024-03-06T14:39:25;9.00;;;3.00;;
7667;SDS011;3876;42.204;24.686;2024-03-06T14:41:52;4.07;;;2.43;;
7667;SDS011;3876;42.204;24.686;2024-03-06T14:44:19;6.00;;;2.00;;
7667;SDS011;3876;42.204;24.686;2024-03-06T14:46:46;2.50;;;2.17;;
7667;SDS011;3876;42.204;24.686;2024-03-06T14:49:14;1.60;;;1.47;;
7667;SDS011;3876;42.204;24.686;2024-03-06T14:51:42;2.33;;;1.80;;
7667;SDS011;3876;42.204;24.686;2024-03-06T14:54:08;3.00;;;1.80;;
7667;SDS011;3876;42.204;24.686;2024-03-06T14:56:35;1.93;;;1.83;;
7667;SDS011;3876;42.204;24.686;2024-03-06T14:59:02;3.40;;;3.03;;
7667;SDS011;3876;42.204;24.686;2024-03-06T15:01:29;6.07;;;3.37;;
7667;SDS011;3876;42.204;24.686;2024-03-06T15:03:55;2.23;;;2.13;;